Time;durP1;ratioP1;P1;durP2;ratioP2;P2;SDS_P1;SDS_P2;PMS_P1;PMS_P2;Temp;Humidity;BMP_temperature;BMP_pressure;BME280_temperature;BME280_humidity;BME280_pressure;Samples;Min_cycle;Max_cycle;Signal;HPM_P1;HPM_P2
2023/08/03 00:00:27;;;;;;;3.30;0.63;;;20.80;68.30;22.30;98667.00;;;;5049287;28;20218;-77
2023/08/03 00:02:54;;;;;;;1.42;0.80;;;20.80;68.40;22.30;98670.00;;;;5048267;28;20210;-76
2023/08/03 00:05:23;;;;;;;1.40;0.90;;;20.80;68.40;22.30;98680.00;;;;5048898;28;20754;-76
2023/08/03 00:07:50;;;;;;;2.88;0.60;;;20.80;68.60;22.30;98680.00;;;;5048609;28;20587;-77
2023/08/03 00:10:19;;;;;;;1.65;0.63;;;20.80;68.50;22.30;98674.00;;;;5040311;28;20204;-77
2023/08/03 00:12:47;;;;;;;1.50;0.98;;;20.80;68.50;22.30;98679.00;;;;5028242;28;20212;-76
2023/08/03 00:15:16;;;;;;;1.10;0.75;;;20.80;68.60;22.30;98692.00;;;;5028512;28;20200;-76
2023/08/03 00:17:43;;;;;;;1.83;0.80;;;20.80;68.70;22.30;98686.00;;;;5028299;28;20612;-76
2023/08/03 00:20:11;;;;;;;1.70;0.77;;;20.80;68.70;22.40;98677.00;;;;5046877;28;20238;-76
2023/08/03 00:22:39;;;;;;;2.88;1.10;;;20.80;68.70;22.40;98685.00;;;;5048776;28;20192;-76
2023/08/03 00:25:07;;;;;;;1.25;0.80;;;20.80;68.80;22.40;98685.00;;;;5048202;28;20208;-76
2023/08/03 00:27:34;;;;;;;2.78;1.00;;;20.90;68.90;22.40;98699.00;;;;5047249;28;20210;-76
2023/08/03 00:30:01;;;;;;;2.78;1.00;;;20.90;68.90;22.40;98706.00;;;;5048322;28;20570;-77
2023/08/03 00:32:28;;;;;;;1.83;0.88;;;20.90;68.90;22.40;98704.00;;;;5048688;28;20614;-76
2023/08/03 00:34:55;;;;;;;1.15;0.90;;;20.90;68.90;22.50;98709.00;;;;5047234;28;20200;-75
2023/08/03 00:37:22;;;;;;;2.90;1.20;;;20.90;69.00;22.50;98715.00;;;;5048145;28;20223;-76
2023/08/03 00:39:50;;;;;;;2.00;0.95;;;21.00;69.10;22.50;98721.00;;;;5047731;28;20965;-75
2023/08/03 00:42:17;;;;;;;2.10;1.33;;;21.00;69.10;22.50;98728.00;;;;5048445;28;20214;-76
2023/08/03 00:44:47;;;;;;;2.00;1.20;;;21.00;69.00;22.50;98728.00;;;;5035090;28;20204;-76
2023/08/03 00:47:14;;;;;;;1.50;1.30;;;21.00;69.10;22.50;98733.00;;;;5028613;28;20236;-76
2023/08/03 00:49:42;;;;;;;1.10;0.90;;;21.00;69.00;22.50;98745.00;;;;5028191;28;20238;-76
2023/08/03 00:52:09;;;;;;;2.17;1.20;;;21.00;69.00;22.50;98740.00;;;;5028712;28;20231;-76
2023/08/03 00:54:37;;;;;;;1.65;1.27;;;21.00;69.00;22.50;98744.00;;;;5027662;28;20204;-77
2023/08/03 00:57:06;;;;;;;1.75;1.10;;;21.00;69.10;22.50;98751.00;;;;5028291;28;20208;-76
2023/08/03 00:59:34;;;;;;;4.25;1.00;;;21.10;69.30;22.60;98754.00;;;;5028445;28;20463;-76
2023/08/03 01:02:02;;;;;;;2.20;0.90;;;21.10;69.20;22.60;98763.00;;;;5028659;28;20208;-76
2023/08/03 01:04:29;;;;;;;1.75;0.50;;;21.10;69.10;22.60;98768.00;;;;5034229;28;20222;-76
2023/08/03 01:06:55;;;;;;;1.90;0.55;;;21.10;69.10;22.60;98769.00;;;;5047326;28;20199;-76
2023/08/03 01:09:22;;;;;;;3.60;0.40;;;21.10;69.00;22.60;98774.00;;;;5048242;28;20210;-77
2023/08/03 01:11:49;;;;;;;1.20;0.40;;;21.10;69.00;22.60;98780.00;;;;5047826;28;20211;-76
2023/08/03 01:14:18;;;;;;;1.02;0.40;;;21.10;69.00;22.50;98786.00;;;;5048395;28;20210;-77
2023/08/03 01:16:45;;;;;;;1.13;0.50;;;21.10;69.00;22.60;98786.00;;;;5047011;28;21219;-76
2023/08/03 01:19:14;;;;;;;2.50;0.60;;;21.10;69.00;22.50;98780.00;;;;5040601;28;20262;-77
2023/08/03 01:21:43;;;;;;;1.90;0.40;;;21.10;69.00;22.50;98798.00;;;;5047626;28;20207;-76
2023/08/03 01:24:12;;;;;;;1.27;0.60;;;21.10;69.00;22.50;98798.00;;;;5048197;28;20211;-76
2023/08/03 01:26:40;;;;;;;1.42;0.60;;;21.10;69.00;22.60;98811.00;;;;5048055;28;20654;-77
2023/08/03 01:29:07;;;;;;;3.20;1.05;;;21.10;69.10;22.60;98811.00;;;;5049927;28;20203;-76
2023/08/03 01:31:34;;;;;;;1.83;0.55;;;21.10;69.20;22.60;98821.00;;;;5052048;28;20206;-77
2023/08/03 01:34:02;;;;;;;1.70;0.70;;;21.10;69.20;22.60;98817.00;;;;5052435;28;20640;-76
2023/08/03 01:36:29;;;;;;;1.15;0.70;;;21.10;69.30;22.60;98823.00;;;;5032428;28;20737;-76
2023/08/03 01:39:05;;;;;;;3.53;1.27;;;21.10;69.30;22.60;98826.00;;;;5030710;28;20216;-77
2023/08/03 01:41:34;;;;;;;1.88;0.70;;;21.10;69.30;22.60;98834.00;;;;5038211;28;20199;-76
2023/08/03 01:44:22;;;;;;;2.38;0.80;;;21.20;69.30;22.50;98831.00;;;;5051211;28;20191;-76
2023/08/03 01:46:50;;;;;;;2.17;0.90;;;21.20;69.60;22.70;98833.00;;;;5051274;28;20231;-76
2023/08/03 01:49:17;;;;;;;2.50;0.90;;;21.20;69.20;22.70;98838.00;;;;5051541;28;20206;-77
2023/08/03 01:51:44;;;;;;;2.72;1.08;;;21.20;69.30;22.70;98832.00;;;;5046402;28;20215;-76
2023/08/03 01:54:13;;;;;;;1.83;0.90;;;21.20;69.30;22.70;98842.00;;;;5031368;28;20652;-76
2023/08/03 01:56:42;;;;;;;1.92;0.85;;;21.20;69.40;22.70;98838.00;;;;5030874;28;20562;-77
2023/08/03 01:59:09;;;;;;;2.85;0.90;;;21.20;69.40;22.70;98836.00;;;;5030795;28;20699;-76
2023/08/03 02:01:36;;;;;;;1.42;0.77;;;21.20;69.40;22.70;98850.00;;;;5031600;28;20219;-76
2023/08/03 02:04:03;;;;;;;4.85;1.40;;;21.20;69.50;22.70;98850.00;;;;5033233;28;20989;-76
2023/08/03 02:06:30;;;;;;;4.07;1.10;;;21.30;69.50;22.70;98858.00;;;;5050331;28;20642;-76
2023/08/03 02:08:57;;;;;;;2.15;1.42;;;21.30;69.50;22.80;98854.00;;;;5044583;28;20211;-76
2023/08/03 02:11:24;;;;;;;4.22;1.33;;;21.30;69.50;22.80;98851.00;;;;5031379;28;20212;-76
2023/08/03 02:13:52;;;;;;;2.67;0.95;;;21.30;69.50;22.80;98852.00;;;;5030653;28;20671;-76
2023/08/03 02:16:19;;;;;;;1.50;0.82;;;21.30;69.60;22.80;98859.00;;;;5031381;28;20203;-76
2023/08/03 02:18:46;;;;;;;2.13;0.98;;;21.30;69.60;22.80;98854.00;;;;5035038;28;20199;-76
2023/08/03 02:21:13;;;;;;;5.90;1.27;;;21.30;69.50;22.80;98859.00;;;;5050655;28;20200;-76
2023/08/03 02:23:40;;;;;;;1.63;1.00;;;21.30;69.60;22.80;98859.00;;;;5050892;28;20561;-76
2023/08/03 02:26:08;;;;;;;2.17;1.20;;;21.30;69.60;22.80;98857.00;;;;5049630;28;20216;-76
2023/08/03 02:28:35;;;;;;;3.83;1.55;;;21.30;69.60;22.90;98862.00;;;;5050797;28;20203;-76
2023/08/03 02:31:03;;;;;;;2.40;1.02;;;21.30;69.60;22.80;98864.00;;;;5050088;28;20254;-76
2023/08/03 02:33:30;;;;;;;3.58;1.02;;;21.40;69.60;22.90;98859.00;;;;5050774;28;20610;-76
2023/08/03 02:35:57;;;;;;;5.18;1.05;;;21.40;69.50;22.90;98865.00;;;;5050034;28;20203;-76
2023/08/03 02:38:24;;;;;;;3.83;1.63;;;21.40;69.50;22.90;98872.00;;;;5050719;28;20579;-76
2023/08/03 02:40:51;;;;;;;4.32;1.38;;;21.40;69.50;22.90;98863.00;;;;5049513;28;20609;-76
2023/08/03 02:43:18;;;;;;;2.80;1.23;;;21.40;69.40;22.90;98865.00;;;;5049426;28;20671;-76
2023/08/03 02:45:45;;;;;;;3.03;1.25;;;21.40;69.40;22.90;98871.00;;;;5049974;28;20207;-76
2023/08/03 02:48:12;;;;;;;4.43;1.10;;;21.40;69.30;22.90;98864.00;;;;5050305;28;20230;-77
2023/08/03 02:50:39;;;;;;;2.67;1.10;;;21.40;69.30;22.90;98866.00;;;;5050398;28;20437;-77
2023/08/03 02:53:06;;;;;;;3.83;0.80;;;21.40;69.30;22.80;98865.00;;;;5050143;28;20200;-76
2023/08/03 02:55:33;;;;;;;2.90;0.98;;;21.40;69.20;22.80;98865.00;;;;5049693;28;20215;-76
2023/08/03 02:58:00;;;;;;;1.33;0.90;;;21.40;69.20;22.80;98862.00;;;;5049883;28;20207;-76
2023/08/03 03:00:27;;;;;;;3.67;1.10;;;21.30;69.10;22.80;98861.00;;;;5049172;28;20710;-76
2023/08/03 03:02:54;;;;;;;1.75;0.93;;;21.30;69.20;22.80;98871.00;;;;5049828;28;20207;-76
2023/08/03 03:05:22;;;;;;;2.90;0.85;;;21.30;69.10;22.80;98871.00;;;;5049831;28;20702;-76
2023/08/03 03:07:49;;;;;;;1.50;0.77;;;21.30;69.10;22.80;98874.00;;;;5049289;28;20208;-76
2023/08/03 03:10:16;;;;;;;1.92;0.77;;;21.30;69.10;22.80;98878.00;;;;5050029;28;20200;-76
2023/08/03 03:12:43;;;;;;;2.03;1.05;;;21.30;69.10;22.80;98873.00;;;;5049767;28;20207;-76
2023/08/03 03:15:11;;;;;;;2.20;0.75;;;21.30;69.10;22.80;98873.00;;;;5049480;28;20211;-76
2023/08/03 03:17:38;;;;;;;3.22;0.90;;;21.30;69.10;22.80;98869.00;;;;5038031;28;20215;-76
2023/08/03 03:20:07;;;;;;;2.72;0.90;;;21.30;69.10;22.80;98872.00;;;;5044209;28;20949;-76
2023/08/03 03:22:36;;;;;;;3.20;0.80;;;21.30;69.00;22.80;98875.00;;;;5049283;28;20206;-76
2023/08/03 03:25:03;;;;;;;1.02;0.73;;;21.30;69.00;22.70;98872.00;;;;5049264;28;20203;-76
2023/08/03 03:27:30;;;;;;;2.97;0.60;;;21.30;69.00;22.70;98874.00;;;;5049078;28;20671;-77
2023/08/03 03:29:57;;;;;;;1.65;0.60;;;21.30;69.10;22.70;98880.00;;;;5049421;28;20270;-76
2023/08/03 03:32:24;;;;;;;0.70;0.57;;;21.20;69.00;22.70;98876.00;;;;5049152;28;20209;-76
2023/08/03 03:34:50;;;;;;;1.80;0.60;;;21.20;69.10;22.70;98882.00;;;;5048218;28;20768;-76
2023/08/03 03:37:17;;;;;;;3.03;0.88;;;21.20;69.20;22.70;98880.00;;;;5049112;28;20238;-76
2023/08/03 03:39:46;;;;;;;1.73;0.70;;;21.20;69.20;22.70;98882.00;;;;5048140;28;20231;-76
2023/08/03 03:42:12;;;;;;;0.88;0.60;;;21.20;69.30;22.70;98888.00;;;;5049646;28;20206;-76
2023/08/03 03:44:39;;;;;;;1.77;0.75;;;21.20;69.30;22.70;98893.00;;;;5049970;28;20219;-76
2023/08/03 03:47:06;;;;;;;2.08;0.80;;;21.20;69.30;22.70;98894.00;;;;5049189;28;20232;-77
2023/08/03 03:49:33;;;;;;;1.88;1.00;;;21.20;69.40;22.70;98902.00;;;;5049307;28;20738;-76
2023/08/03 03:52:00;;;;;;;1.58;0.80;;;21.20;69.40;22.70;98905.00;;;;5046487;28;20208;-76
2023/08/03 03:54:27;;;;;;;2.00;0.90;;;21.20;69.40;22.70;98912.00;;;;5048747;28;20668;-76
2023/08/03 03:56:57;;;;;;;1.88;0.85;;;21.10;69.40;22.60;98927.00;;;;5048597;28;20207;-76
2023/08/03 03:59:24;;;;;;;1.65;0.85;;;21.20;69.50;22.70;98923.00;;;;5049165;28;20665;-76
2023/08/03 04:01:51;;;;;;;1.52;1.00;;;21.20;69.60;22.60;98923.00;;;;5049035;28;20200;-77
2023/08/03 04:04:18;;;;;;;2.55;0.90;;;21.20;69.60;22.60;98931.00;;;;5048438;28;20655;-76
2023/08/03 04:06:45;;;;;;;4.38;1.00;;;21.20;69.60;22.60;98932.00;;;;5047993;28;20207;-77
2023/08/03 04:09:12;;;;;;;1.10;1.00;;;21.20;69.60;22.60;98942.00;;;;5032308;28;20578;-76
2023/08/03 04:11:39;;;;;;;2.38;0.80;;;21.10;69.60;22.60;98933.00;;;;5028693;28;20205;-76
2023/08/03 04:14:07;;;;;;;3.15;1.08;;;21.20;69.80;22.60;98946.00;;;;5027798;28;20208;-76
2023/08/03 04:16:34;;;;;;;2.78;1.17;;;21.10;69.70;22.60;98948.00;;;;5028588;28;20232;-76
2023/08/03 04:19:01;;;;;;;2.65;1.50;;;21.10;69.70;22.70;98947.00;;;;5033431;28;20200;-76
2023/08/03 04:21:28;;;;;;;2.20;0.77;;;21.20;69.90;22.60;98957.00;;;;5048414;28;20233;-76
2023/08/03 04:23:55;;;;;;;3.65;0.98;;;21.20;69.80;22.60;98964.00;;;;5048417;28;20203;-77
2023/08/03 04:26:22;;;;;;;2.88;0.90;;;21.20;69.80;22.60;98967.00;;;;5047186;28;20583;-77
2023/08/03 04:28:48;;;;;;;1.38;0.85;;;21.20;69.80;22.60;98967.00;;;;5047417;28;20595;-76
2023/08/03 04:31:17;;;;;;;2.72;0.90;;;21.20;69.80;22.60;98973.00;;;;5048289;28;20215;-76
2023/08/03 04:33:44;;;;;;;3.80;0.70;;;21.20;69.80;22.60;98982.00;;;;5048144;28;20203;-76
2023/08/03 04:36:10;;;;;;;3.08;0.98;;;21.20;69.70;22.60;98980.00;;;;5047775;28;20207;-77
2023/08/03 04:38:37;;;;;;;2.40;1.20;;;21.20;69.70;22.60;98978.00;;;;5048423;28;20674;-76
2023/08/03 04:41:04;;;;;;;0.82;0.50;;;21.20;69.70;22.60;98984.00;;;;5047379;28;20234;-77
2023/08/03 04:43:32;;;;;;;1.52;0.60;;;21.20;69.70;22.60;98981.00;;;;5047469;28;20200;-76
2023/08/03 04:45:58;;;;;;;2.70;0.90;;;21.20;69.70;22.60;98983.00;;;;5048008;28;20257;-76
2023/08/03 04:48:27;;;;;;;4.88;1.10;;;21.20;70.50;22.60;98990.00;;;;5047283;28;20318;-76
2023/08/03 04:50:54;;;;;;;3.22;0.90;;;21.20;69.80;22.70;98993.00;;;;5047570;28;20214;-77
2023/08/03 04:53:21;;;;;;;2.33;0.68;;;21.10;69.70;22.70;99005.00;;;;5048141;28;20750;-77
2023/08/03 04:55:48;;;;;;;2.05;0.80;;;21.20;69.70;22.60;99002.00;;;;5047640;28;20203;-77
2023/08/03 04:58:15;;;;;;;2.90;1.00;;;21.20;69.70;22.60;99009.00;;;;5048018;28;20654;-76
2023/08/03 05:00:41;;;;;;;2.65;0.80;;;21.20;69.70;22.60;99009.00;;;;5028109;28;20232;-76
2023/08/03 05:03:08;;;;;;;2.28;0.60;;;21.20;69.70;22.70;99014.00;;;;5028987;28;20212;-76
2023/08/03 05:05:37;;;;;;;2.20;0.75;;;21.20;69.80;22.70;99016.00;;;;5032137;28;20211;-76
2023/08/03 05:08:04;;;;;;;4.53;1.00;;;21.20;69.80;22.70;99015.00;;;;5051812;28;20218;-76
2023/08/03 05:10:31;;;;;;;2.35;0.70;;;21.20;69.80;22.70;99027.00;;;;5051534;28;20196;-76
2023/08/03 05:12:58;;;;;;;1.98;0.70;;;21.20;69.80;22.70;99026.00;;;;5051801;28;20200;-76
2023/08/03 05:15:25;;;;;;;1.77;0.60;;;21.20;69.80;22.70;99032.00;;;;5050266;28;20210;-77
2023/08/03 05:17:52;;;;;;;2.63;0.57;;;21.20;69.70;22.70;99030.00;;;;5031610;28;20211;-77
2023/08/03 05:20:19;;;;;;;1.85;0.75;;;21.20;69.70;22.60;99038.00;;;;5046996;28;20594;-77
2023/08/03 05:22:47;;;;;;;2.05;0.55;;;21.20;69.70;22.60;99049.00;;;;5051333;28;20632;-76
2023/08/03 05:25:18;;;;;;;2.63;0.95;;;21.20;69.70;22.60;99047.00;;;;5052462;28;20222;-76
2023/08/03 05:27:45;;;;;;;2.55;0.90;;;21.20;69.70;22.60;99050.00;;;;5051383;28;20203;-76
2023/08/03 05:30:12;;;;;;;1.90;0.85;;;21.20;69.80;22.60;99057.00;;;;5051586;28;20218;-76
2023/08/03 05:32:39;;;;;;;8.73;1.08;;;21.10;69.70;22.60;99054.00;;;;5050621;28;20711;-77
2023/08/03 05:35:07;;;;;;;4.88;1.05;;;21.10;69.70;22.60;99061.00;;;;5051681;28;20669;-77
2023/08/03 05:37:34;;;;;;;2.83;0.90;;;21.10;69.70;22.60;99064.00;;;;5051612;28;20211;-77
2023/08/03 05:40:04;;;;;;;3.47;1.15;;;21.10;69.70;22.50;99063.00;;;;5051211;28;20199;-77
2023/08/03 05:42:38;;;;;;;4.00;1.10;;;21.10;69.70;22.50;99069.00;;;;5051276;28;20207;-76
2023/08/03 05:45:11;;;;;;;5.47;1.25;;;21.10;69.70;22.50;99079.00;;;;5051399;28;20199;-76
2023/08/03 05:47:39;;;;;;;3.60;0.80;;;21.10;69.70;22.60;99101.00;;;;5050229;28;20570;-75
2023/08/03 05:50:15;;;;;;;4.03;1.20;;;21.10;69.50;22.40;99087.00;;;;5050479;28;20199;-76
2023/08/03 05:52:42;;;;;;;2.58;0.90;;;21.10;69.50;22.50;99076.00;;;;5051139;28;20207;-75
2023/08/03 05:55:12;;;;;;;3.70;0.77;;;21.10;69.50;22.50;99100.00;;;;5051209;28;20203;-76
2023/08/03 05:57:39;;;;;;;2.65;0.85;;;21.00;69.50;22.50;99100.00;;;;5050763;28;20234;-76
2023/08/03 06:00:19;;;;;;;3.40;1.25;;;21.00;69.40;22.40;99094.00;;;;5050755;28;20246;-77
2023/08/03 06:02:47;;;;;;;3.78;1.15;;;21.00;69.60;22.50;99099.00;;;;5051116;28;20226;-77
2023/08/03 06:05:43;;;;;;;2.58;0.68;;;21.00;69.50;22.30;99094.00;;;;5051526;28;20207;-76
2023/08/03 06:08:16;;;;;;;2.88;1.00;;;21.00;69.90;22.40;99088.00;;;;5030967;28;20204;-77
2023/08/03 06:10:46;;;;;;;1.60;0.70;;;21.00;69.60;22.50;99106.00;;;;5030797;28;20656;-77
2023/08/03 06:13:16;;;;;;;4.40;0.90;;;21.00;69.70;22.50;99112.00;;;;5030003;28;20294;-76
2023/08/03 06:15:45;;;;;;;2.72;1.08;;;21.00;69.80;22.50;99111.00;;;;5029652;28;20853;-76
2023/08/03 06:18:16;;;;;;;2.72;1.00;;;21.00;69.80;22.50;99112.00;;;;5030978;28;20754;-77
2023/08/03 06:20:47;;;;;;;6.93;1.00;;;21.00;69.90;22.50;99116.00;;;;5048403;28;20238;-76
2023/08/03 06:23:18;;;;;;;1.85;1.00;;;21.00;69.80;22.50;99119.00;;;;5049701;28;20200;-76
2023/08/03 06:25:47;;;;;;;5.30;1.40;;;21.00;69.80;22.50;99115.00;;;;5030610;28;20208;-76
2023/08/03 06:28:16;;;;;;;2.97;1.40;;;21.00;69.80;22.50;99130.00;;;;5030955;28;20204;-76
2023/08/03 06:30:44;;;;;;;3.95;1.08;;;21.00;70.50;22.50;99118.00;;;;5030838;28;20208;-76
2023/08/03 06:33:15;;;;;;;2.97;0.63;;;21.00;69.80;22.50;99121.00;;;;5030285;28;20566;-76
2023/08/03 06:35:44;;;;;;;10.05;1.40;;;21.00;69.80;22.50;99127.00;;;;5030516;28;20196;-76
2023/08/03 06:38:14;;;;;;;2.42;0.75;;;21.00;69.80;22.50;99132.00;;;;5030177;28;20216;-76
2023/08/03 06:40:43;;;;;;;4.65;1.10;;;21.00;69.80;22.50;99134.00;;;;5031096;28;20227;-76
2023/08/03 06:43:13;;;;;;;3.22;1.02;;;21.00;70.50;22.50;99140.00;;;;5029833;28;20208;-76
2023/08/03 06:45:41;;;;;;;5.13;1.00;;;21.00;69.80;22.50;99139.00;;;;5033603;28;20214;-76
2023/08/03 06:48:09;;;;;;;7.03;1.63;;;21.00;69.80;22.50;99143.00;;;;5049617;28;20223;-77
2023/08/03 06:50:37;;;;;;;4.63;1.58;;;21.00;70.00;22.50;99145.00;;;;5050353;28;20211;-76
2023/08/03 06:53:05;;;;;;;4.35;1.00;;;21.00;70.00;22.50;99142.00;;;;5049975;28;20271;-76
2023/08/03 06:55:32;;;;;;;2.00;0.60;;;21.00;70.10;22.60;99148.00;;;;5050206;28;20195;-76
2023/08/03 06:57:59;;;;;;;3.33;1.00;;;21.00;70.10;22.60;99148.00;;;;5043097;28;20226;-76
2023/08/03 07:00:28;;;;;;;4.88;1.00;;;21.00;70.10;22.60;99147.00;;;;5029990;28;20212;-77
2023/08/03 07:02:55;;;;;;;2.22;0.52;;;21.00;70.10;22.60;99143.00;;;;5029650;28;20215;-76
2023/08/03 07:05:22;;;;;;;3.03;0.95;;;21.00;70.10;22.60;99152.00;;;;5030134;28;20212;-76
2023/08/03 07:07:49;;;;;;;3.75;1.05;;;21.00;70.00;22.60;99152.00;;;;5029607;28;20211;-77
2023/08/03 07:10:16;;;;;;;2.22;0.75;;;21.00;70.10;22.60;99161.00;;;;5029843;28;20193;-77
2023/08/03 07:12:43;;;;;;;2.95;0.93;;;21.10;70.10;22.60;99158.00;;;;5030176;28;20197;-76
2023/08/03 07:15:10;;;;;;;2.08;0.73;;;21.10;70.20;22.60;99167.00;;;;5030118;28;20204;-75
2023/08/03 07:17:39;;;;;;;2.72;0.70;;;21.10;70.30;22.60;99172.00;;;;5029964;28;20199;-77
2023/08/03 07:20:08;;;;;;;1.60;0.70;;;21.10;70.30;22.60;99170.00;;;;5041249;28;20569;-76
2023/08/03 07:22:35;;;;;;;2.03;0.80;;;21.10;70.40;22.60;99172.00;;;;5049444;28;20232;-77
2023/08/03 07:25:03;;;;;;;1.42;0.82;;;21.10;70.50;22.60;99176.00;;;;5049026;28;20246;-77
2023/08/03 07:27:30;;;;;;;3.97;0.82;;;21.10;70.50;22.60;99176.00;;;;5049550;28;20195;-77
2023/08/03 07:29:57;;;;;;;4.05;0.70;;;21.10;70.50;22.60;99181.00;;;;5049069;28;20207;-78
2023/08/03 07:32:24;;;;;;;3.08;1.05;;;21.10;70.50;22.60;99184.00;;;;5048482;28;20212;-77
2023/08/03 07:34:53;;;;;;;4.97;0.90;;;21.10;70.50;22.60;99194.00;;;;5048591;28;20701;-76
2023/08/03 07:37:19;;;;;;;4.03;1.00;;;21.10;70.50;22.70;99191.00;;;;5049506;28;20718;-77
2023/08/03 07:39:46;;;;;;;4.55;0.95;;;21.20;70.60;22.70;99206.00;;;;5049013;28;20207;-76
2023/08/03 07:42:13;;;;;;;1.83;0.63;;;21.20;70.70;22.70;99202.00;;;;5049049;28;20227;-77
2023/08/03 07:44:40;;;;;;;2.28;1.00;;;21.20;70.70;22.70;99211.00;;;;5049485;28;20203;-77
2023/08/03 07:47:07;;;;;;;5.55;1.75;;;21.20;70.70;22.80;99221.00;;;;5048019;28;20203;-76
2023/08/03 07:49:34;;;;;;;1.52;0.73;;;21.30;70.90;22.80;99234.00;;;;5037569;28;20248;-77
2023/08/03 07:52:02;;;;;;;3.72;1.08;;;21.30;70.90;22.80;99244.00;;;;5028547;28;20215;-77
2023/08/03 07:54:31;;;;;;;3.53;0.90;;;21.30;71.00;22.90;99243.00;;;;5029366;28;20219;-77
2023/08/03 07:56:57;;;;;;;3.85;0.93;;;21.30;71.00;22.90;99259.00;;;;5028068;28;20211;-77
2023/08/03 07:59:24;;;;;;;2.30;0.70;;;21.30;71.00;22.90;99268.00;;;;5029394;28;20192;-76
2023/08/03 08:01:51;;;;;;;2.13;1.05;;;21.40;71.20;23.00;99272.00;;;;5028379;28;20231;-77
2023/08/03 08:04:18;;;;;;;3.40;0.82;;;21.50;71.30;23.10;99279.00;;;;5029013;28;20672;-78
2023/08/03 08:06:46;;;;;;;2.60;1.10;;;21.50;71.40;23.10;99288.00;;;;5028979;28;20790;-77
2023/08/03 08:09:14;;;;;;;1.88;0.90;;;21.60;71.70;23.20;99297.00;;;;5028575;28;20597;-77
2023/08/03 08:11:41;;;;;;;3.03;0.85;;;21.60;71.80;23.30;99304.00;;;;5028561;28;20200;-77
2023/08/03 08:14:08;;;;;;;1.70;0.80;;;21.70;71.80;23.30;99311.00;;;;5028816;28;20208;-77
2023/08/03 08:16:35;;;;;;;2.08;1.00;;;21.80;71.80;23.40;99321.00;;;;5028777;28;20286;-77
2023/08/03 08:19:02;;;;;;;1.90;0.82;;;21.80;71.60;23.40;99329.00;;;;5030150;28;20215;-77
2023/08/03 08:21:29;;;;;;;2.95;1.48;;;21.90;71.60;23.50;99334.00;;;;5048465;28;20219;-77
2023/08/03 08:23:56;;;;;;;3.67;0.95;;;22.00;71.60;23.50;99346.00;;;;5047551;28;20207;-77
2023/08/03 08:26:25;;;;;;;3.08;1.15;;;22.00;71.60;23.60;99344.00;;;;5048025;28;20282;-77
2023/08/03 08:28:56;;;;;;;3.65;1.05;;;22.00;71.50;23.70;99358.00;;;;5048239;28;20723;-77
2023/08/03 08:31:23;;;;;;;3.13;1.45;;;22.10;71.60;23.70;99373.00;;;;5048371;28;20295;-77
2023/08/03 08:33:50;;;;;;;5.15;1.10;;;22.20;71.60;23.80;99380.00;;;;5048209;28;20195;-77
2023/08/03 08:36:17;;;;;;;1.63;1.23;;;22.20;71.60;23.90;99386.00;;;;5048595;28;20203;-77
2023/08/03 08:38:44;;;;;;;3.85;1.40;;;22.30;71.50;23.90;99389.00;;;;5047235;28;20195;-77
2023/08/03 08:41:11;;;;;;;4.22;1.77;;;22.40;71.40;24.00;99399.00;;;;5047312;28;20227;-77
2023/08/03 08:43:41;;;;;;;2.30;1.20;;;22.40;71.30;24.00;99397.00;;;;5047966;28;20210;-77
2023/08/03 08:46:08;;;;;;;4.68;1.08;;;22.50;71.20;24.00;99406.00;;;;5048061;28;20265;-77
2023/08/03 08:48:35;;;;;;;3.67;1.30;;;22.50;71.00;24.10;99413.00;;;;5047614;28;20231;-77
2023/08/03 08:51:05;;;;;;;3.42;1.42;;;22.60;71.10;24.10;99414.00;;;;5048279;28;20199;-76
2023/08/03 08:53:32;;;;;;;3.85;1.73;;;22.60;71.00;24.10;99421.00;;;;5048420;28;20619;-77
2023/08/03 08:56:00;;;;;;;2.22;1.35;;;22.60;70.90;24.20;99424.00;;;;5047915;28;20568;-77
2023/08/03 08:58:27;;;;;;;5.30;1.25;;;22.60;70.90;24.30;99426.00;;;;5028677;28;20722;-76
2023/08/03 09:01:05;;;;;;;3.05;1.52;;;22.70;71.00;24.30;99430.00;;;;5028092;28;20204;-77
2023/08/03 09:03:47;;;;;;;4.75;1.40;;;22.80;71.30;24.30;99438.00;;;;5028041;28;20782;-76
2023/08/03 09:06:14;;;;;;;3.67;1.23;;;22.90;71.30;24.50;99445.00;;;;5028519;28;20224;-76
2023/08/03 09:08:54;;;;;;;1.52;1.05;;;23.00;71.20;24.50;99454.00;;;;5027300;28;20207;-76
2023/08/03 09:11:38;;;;;;;4.47;1.52;;;23.00;70.90;24.50;99471.00;;;;5027847;28;20747;-76
2023/08/03 09:14:07;;;;;;;2.45;1.00;;;23.10;70.20;24.60;99468.00;;;;5028491;28;20740;-76
2023/08/03 09:16:37;;;;;;;2.95;1.33;;;23.10;69.80;24.50;99485.00;;;;5028479;28;20235;-76
2023/08/03 09:19:04;;;;;;;3.28;1.13;;;23.10;69.40;24.50;99488.00;;;;5029202;28;20481;-76
2023/08/03 09:21:31;;;;;;;3.05;1.38;;;23.10;69.20;24.50;99486.00;;;;5047984;28;20212;-77
2023/08/03 09:23:59;;;;;;;2.47;1.02;;;23.10;69.10;24.50;99493.00;;;;5047913;28;20218;-76
2023/08/03 09:26:26;;;;;;;7.03;1.40;;;23.10;69.30;24.60;99500.00;;;;5047834;28;20658;-77
2023/08/03 09:28:53;;;;;;;2.53;1.35;;;23.10;69.50;24.60;99504.00;;;;5047624;28;20195;-76
2023/08/03 09:31:26;;;;;;;2.28;1.40;;;23.20;69.70;24.70;99507.00;;;;5046826;28;20681;-76
2023/08/03 09:33:59;;;;;;;2.60;1.10;;;23.20;69.80;24.80;99516.00;;;;5047085;28;20602;-77
2023/08/03 09:36:28;;;;;;;2.72;1.17;;;23.30;70.20;24.90;99516.00;;;;5047748;28;20204;-76
2023/08/03 09:39:11;;;;;;;1.55;1.35;;;23.40;70.60;25.00;99525.00;;;;5047444;28;20207;-76
2023/08/03 09:41:38;;;;;;;2.40;1.20;;;23.50;70.80;25.30;99523.00;;;;5047481;28;20219;-76
2023/08/03 09:44:08;;;;;;;3.97;1.10;;;23.70;70.80;25.40;99529.00;;;;5046989;28;20698;-76
2023/08/03 09:46:35;;;;;;;2.60;1.20;;;23.80;70.30;25.50;99531.00;;;;5046989;28;20207;-76
2023/08/03 09:49:04;;;;;;;3.70;1.25;;;24.00;70.20;25.70;99535.00;;;;5032097;28;20247;-76
2023/08/03 09:51:34;;;;;;;2.10;1.10;;;24.10;69.80;25.80;99539.00;;;;5031292;28;20211;-76
2023/08/03 09:54:13;;;;;;;1.85;0.82;;;24.20;69.50;25.80;99549.00;;;;5030507;28;20211;-76
2023/08/03 09:56:52;;;;;;;1.75;0.90;;;24.30;69.00;25.80;99569.00;;;;5031215;28;20192;-76
2023/08/03 09:59:25;;;;;;;2.88;0.80;;;24.40;68.60;25.90;99579.00;;;;5031040;28;20204;-77
2023/08/03 10:01:57;;;;;;;1.10;0.85;;;24.50;68.10;25.90;99583.00;;;;5030768;28;20231;-76
2023/08/03 10:04:31;;;;;;;1.92;1.05;;;24.50;67.50;25.80;99582.00;;;;5032381;28;20208;-76
2023/08/03 10:07:06;;;;;;;1.25;0.80;;;24.50;66.80;25.70;99581.00;;;;5030441;28;20283;-76
2023/08/03 10:09:39;;;;;;;2.05;0.75;;;24.50;66.60;25.70;99586.00;;;;5031096;28;20196;-76
2023/08/03 10:12:17;;;;;;;3.92;0.77;;;24.40;66.50;25.70;99591.00;;;;5030881;28;20208;-76
2023/08/03 10:14:46;;;;;;;1.35;0.80;;;24.40;66.30;25.70;99585.00;;;;5030614;28;20196;-76
2023/08/03 10:17:14;;;;;;;2.05;1.00;;;24.40;66.50;25.80;99598.00;;;;5030336;28;20199;-76
2023/08/03 10:19:43;;;;;;;5.82;1.77;;;24.40;66.80;25.90;99605.00;;;;5036924;28;20203;-77
2023/08/03 10:22:11;;;;;;;1.45;0.90;;;24.40;67.10;26.00;99598.00;;;;5049704;28;20246;-76
2023/08/03 10:24:38;;;;;;;1.80;0.73;;;24.50;67.40;26.10;99608.00;;;;5050908;28;20203;-76
2023/08/03 10:27:18;;;;;;;1.75;0.85;;;24.50;67.40;26.00;99606.00;;;;5050223;28;20211;-76
2023/08/03 10:29:58;;;;;;;1.85;1.02;;;24.60;66.80;26.00;99621.00;;;;5050036;28;20662;-76
2023/08/03 10:32:27;;;;;;;2.47;0.98;;;24.60;66.30;26.00;99621.00;;;;5050655;28;20686;-76
2023/08/03 10:34:58;;;;;;;1.27;1.10;;;24.60;66.30;26.00;99636.00;;;;5050242;28;20214;-77
2023/08/03 10:37:25;;;;;;;1.63;0.80;;;24.60;66.20;25.90;99638.00;;;;5049851;28;20227;-76
2023/08/03 10:39:54;;;;;;;2.67;1.27;;;24.60;66.00;25.90;99650.00;;;;5048973;28;20547;-76
2023/08/03 10:42:28;;;;;;;2.15;1.08;;;24.50;65.80;25.80;99656.00;;;;5050155;28;20227;-76
2023/08/03 10:45:26;;;;;;;1.40;0.85;;;24.50;65.70;25.60;99658.00;;;;5049997;28;20208;-76
2023/08/03 10:47:54;;;;;;;3.38;1.33;;;24.50;65.70;25.70;99672.00;;;;5029328;28;20196;-76
2023/08/03 10:50:58;;;;;;;2.00;0.80;;;24.40;65.80;25.60;99674.00;;;;5050592;28;20207;-76
2023/08/03 10:53:25;;;;;;;1.90;0.90;;;24.40;65.50;25.70;99673.00;;;;5049951;28;20269;-76
2023/08/03 10:56:04;;;;;;;1.77;0.57;;;24.40;65.70;25.60;99688.00;;;;5044497;28;20208;-76
2023/08/03 10:58:31;;;;;;;2.05;0.70;;;24.30;65.70;25.60;99690.00;;;;5030009;28;20261;-77
2023/08/03 11:00:58;;;;;;;3.78;0.68;;;24.20;65.90;25.60;99695.00;;;;5029615;28;20232;-76